createdAt,value
2022-11-01T00:01:37.627Z,98123.81
2022-11-01T00:03:40.927Z,98125.75
2022-11-01T00:05:43.973Z,98128.25
2022-11-01T00:07:47.248Z,98124.91
2022-11-01T00:09:50.267Z,98125.03
2022-11-01T00:11:53.336Z,98122.41
2022-11-01T00:13:56.467Z,98118.38
2022-11-01T00:15:59.604Z,98115.75
2022-11-01T00:18:04.110Z,98110.16
2022-11-01T00:20:08.782Z,98110.16
2022-11-01T00:22:11.973Z,98102.44
2022-11-01T00:24:15.005Z,98105.16
2022-11-01T00:26:19.757Z,98113.03
2022-11-01T00:28:22.858Z,98111.47
2022-11-01T00:30:25.858Z,98114.06
2022-11-01T00:32:28.950Z,98109.78
2022-11-01T00:34:33.387Z,98109.91
2022-11-01T00:36:37.439Z,98116.13
2022-11-01T00:38:40.604Z,98110.88
2022-11-01T00:40:43.613Z,98108.97
2022-11-01T00:42:46.712Z,98111.56
2022-11-01T00:44:49.717Z,98107.28
2022-11-01T00:46:52.736Z,98113.50
2022-11-01T00:48:55.768Z,98109.44
2022-11-01T00:51:00.124Z,98106.94
2022-11-01T00:53:03.182Z,98105.38
2022-11-01T00:55:07.118Z,98097.88
2022-11-01T00:57:10.248Z,98089.31
2022-11-01T00:59:13.174Z,98096.56
2022-11-01T01:01:16.321Z,98092.13
2022-11-01T01:03:19.652Z,98104.53
2022-11-01T01:05:22.759Z,98097.03
2022-11-01T01:07:27.175Z,98104.06
2022-11-01T01:09:30.229Z,98102.25
2022-11-01T01:11:33.218Z,98107.50
2022-11-01T01:13:36.195Z,98102.97
2022-11-01T01:15:39.466Z,98098.69
2022-11-01T01:17:42.514Z,98115.34
2022-11-01T01:19:45.552Z,98104.88
2022-11-01T01:21:48.866Z,98102.25
2022-11-01T01:23:54.748Z,98112.72
2022-11-01T01:25:57.796Z,98101.44
2022-11-01T01:28:01.589Z,98104.88
2022-11-01T01:30:06.878Z,98103.19
2022-11-01T01:32:10.201Z,98101.56
2022-11-01T01:34:13.267Z,98089.53
2022-11-01T01:36:16.274Z,98097.59
2022-11-01T01:38:19.219Z,98091.66
2022-11-01T01:40:23.639Z,98087.13
2022-11-01T01:42:28.865Z,98090.69
2022-11-01T01:45:10.685Z,98083.81
2022-11-01T01:47:20.062Z,98084.63
2022-11-01T01:49:23.848Z,98088.31
2022-11-01T01:51:28.829Z,98080.47
2022-11-01T01:53:34.017Z,98083.19
2022-11-01T01:55:43.106Z,98086.78
2022-11-01T01:57:46.170Z,98083.19
2022-11-01T01:59:49.378Z,98081.56
2022-11-01T02:01:53.172Z,98082.50
2022-11-01T02:03:56.718Z,98079.16
2022-11-01T02:06:01.723Z,98078.31
2022-11-01T02:08:06.457Z,98077.50
2022-11-01T02:10:10.607Z,98076.56
2022-11-01T02:12:15.374Z,98074.75
2022-11-01T02:14:19.049Z,98076.56
2022-11-01T02:16:48.484Z,98074.75
2022-11-01T02:18:57.712Z,98069.66
2022-11-01T02:21:17.323Z,98072.16
2022-11-01T02:23:52.443Z,98076.44
2022-11-01T02:26:07.116Z,98078.94
2022-11-01T02:28:22.595Z,98085.94
2022-11-01T02:30:26.355Z,98079.06
2022-11-01T02:32:42.340Z,98079.88
2022-11-01T02:34:47.718Z,98085.22
2022-11-01T02:36:57.172Z,98083.44
2022-11-01T02:39:01.809Z,98086.66
2022-11-01T02:41:09.847Z,98091.78
2022-11-01T02:43:17.642Z,98094.41
2022-11-01T02:45:28.998Z,98089.16
2022-11-01T02:47:34.013Z,98094.16
2022-11-01T02:49:39.975Z,98095.00
2022-11-01T02:51:44.113Z,98085.34
2022-11-01T02:53:47.154Z,98093.94
2022-11-01T02:55:53.020Z,98097.25
2022-11-01T02:57:57.960Z,98097.25
2022-11-01T03:00:04.919Z,98098.06
2022-11-01T03:02:10.659Z,98094.53
2022-11-01T03:04:15.265Z,98083.00
2022-11-01T03:06:24.148Z,98083.94
2022-11-01T03:08:30.674Z,98099.53
2022-11-01T03:10:39.133Z,98101.19
2022-11-01T03:12:50.999Z,98112.06
2022-11-01T03:14:56.972Z,98097.28
2022-11-01T03:17:01.720Z,98114.56
2022-11-01T03:19:08.894Z,98110.84
2022-11-01T03:21:17.186Z,98129.06
2022-11-01T03:23:24.710Z,98135.72
2022-11-01T03:25:39.835Z,98126.94
2022-11-01T03:27:43.943Z,98130.25
2022-11-01T03:29:56.305Z,98126.59
2022-11-01T03:31:59.739Z,98128.34
2022-11-01T03:34:04.667Z,98134.31
2022-11-01T03:36:13.656Z,98124.91
2022-11-01T03:38:21.617Z,98131.19
2022-11-01T03:40:26.191Z,98127.88
2022-11-01T03:42:29.619Z,98137.53
2022-11-01T03:44:35.193Z,98143.47
2022-11-01T03:46:38.540Z,98148.47
2022-11-01T03:48:41.877Z,98141.44
2022-11-01T03:50:48.804Z,98158.00
2022-11-01T03:52:52.089Z,98162.50
2022-11-01T03:54:56.417Z,98165.00
2022-11-01T03:56:59.438Z,98162.38
2022-11-01T03:59:02.481Z,98161.56
2022-11-01T04:01:05.551Z,98168.34
2022-11-01T04:03:09.684Z,98173.47
2022-11-01T04:05:13.157Z,98172.63
2022-11-01T04:07:16.111Z,98176.09
2022-11-01T04:09:19.161Z,98182.84
2022-11-01T04:11:23.531Z,98174.41
2022-11-01T04:13:26.737Z,98187.50
2022-11-01T04:15:47.953Z,98190.13
2022-11-01T04:18:08.584Z,98193.44
2022-11-01T04:20:29.722Z,98189.88
2022-11-01T04:22:32.809Z,98196.94
2022-11-01T04:24:35.774Z,98188.09
2022-11-01T04:26:40.126Z,98195.13
2022-11-01T04:28:44.858Z,98196.94
2022-11-01T04:30:47.988Z,98209.91
2022-11-01T04:32:51.109Z,98211.53
2022-11-01T04:34:54.130Z,98208.00
2022-11-01T04:36:57.303Z,98214.78
2022-11-01T04:39:00.567Z,98208.00
2022-11-01T04:41:03.561Z,98214.66
2022-11-01T04:43:07.995Z,98216.56
2022-11-01T04:45:11.701Z,98207.75
2022-11-01T04:47:14.766Z,98209.44
2022-11-01T04:49:17.809Z,98208.56
2022-11-01T04:51:20.813Z,98200.00
2022-11-01T04:53:23.826Z,98206.69
2022-11-01T04:55:26.883Z,98207.75
2022-11-01T04:57:29.912Z,98213.81
2022-11-01T04:59:34.235Z,98213.81
2022-11-01T05:01:37.309Z,98218.81
2022-11-01T05:03:40.306Z,98217.06
2022-11-01T05:05:43.269Z,98230.75
2022-11-01T05:07:46.732Z,98238.47
2022-11-01T05:09:49.685Z,98234.31
2022-11-01T05:11:52.828Z,98244.53
2022-11-01T05:13:56.326Z,98247.03
2022-11-01T05:16:19.058Z,98249.31
2022-11-01T05:18:23.030Z,98245.16
2022-11-01T05:20:26.396Z,98252.91
2022-11-01T05:22:29.401Z,98245.88
2022-11-01T05:24:32.444Z,98254.31
2022-11-01T05:26:35.623Z,98262.06
2022-11-01T05:28:38.567Z,98268.50
2022-11-01T05:30:42.178Z,98271.84
2022-11-01T05:32:46.622Z,98279.09
2022-11-01T05:34:49.850Z,98294.09
2022-11-01T05:36:52.832Z,98291.81
2022-11-01T05:38:57.302Z,98296.91
2022-11-01T05:41:02.897Z,98297.78
2022-11-01T05:43:06.254Z,98287.06
2022-11-01T05:45:10.155Z,98293.25
2022-11-01T05:47:17.116Z,98288.38
2022-11-01T05:49:22.683Z,98296.63
2022-11-01T05:51:25.732Z,98297.81
2022-11-01T05:53:28.728Z,98298.19
2022-11-01T05:55:31.810Z,98291.97
2022-11-01T05:57:34.921Z,98295.34
2022-11-01T05:59:37.933Z,98293.53
2022-11-01T06:01:41.060Z,98292.34
2022-11-01T06:03:43.986Z,98287.72
2022-11-01T06:05:49.478Z,98285.44
2022-11-01T06:07:52.640Z,98275.28
2022-11-01T06:09:55.614Z,98259.22
2022-11-01T06:11:58.614Z,98274.69
2022-11-01T06:14:01.547Z,98278.75
2022-11-01T06:16:06.516Z,98286.63
2022-11-01T06:18:09.729Z,98300.31
2022-11-01T06:20:13.204Z,98314.28
2022-11-01T06:22:17.743Z,98313.19
2022-11-01T06:24:20.699Z,98320.00
2022-11-01T06:26:23.940Z,98322.75
2022-11-01T06:28:26.982Z,98320.94
2022-11-01T06:30:30.100Z,98329.78
2022-11-01T06:32:33.048Z,98334.41
2022-11-01T06:34:40.776Z,98340.75
2022-11-01T06:36:45.733Z,98347.75
2022-11-01T06:38:50.157Z,98345.13
2022-11-01T06:40:53.179Z,98334.66
2022-11-01T06:43:00.865Z,98339.78
2022-11-01T06:45:04.410Z,98337.38
2022-11-01T06:47:07.501Z,98338.97
2022-11-01T06:49:14.785Z,98334.53
2022-11-01T06:51:21.398Z,98348.50
2022-11-01T06:53:24.639Z,98353.75
2022-11-01T06:55:29.927Z,98349.69
2022-11-01T06:57:33.065Z,98366.97
2022-11-01T06:59:36.069Z,98362.56
2022-11-01T07:01:39.179Z,98361.84
2022-11-01T07:03:42.731Z,98377.47
2022-11-01T07:05:45.727Z,98374.72
2022-11-01T07:07:48.669Z,98379.63
2022-11-01T07:09:51.723Z,98391.63
2022-11-01T07:11:58.768Z,98402.88
2022-11-01T07:14:01.901Z,98401.00
2022-11-01T07:16:05.305Z,98405.88
2022-11-01T07:18:09.267Z,98405.63
2022-11-01T07:20:12.587Z,98407.66
2022-11-01T07:22:15.526Z,98412.19
2022-11-01T07:24:18.692Z,98411.72
2022-11-01T07:26:22.027Z,98414.69
2022-11-01T07:28:26.588Z,98414.47
2022-11-01T07:30:29.860Z,98415.16
2022-11-01T07:32:36.281Z,98414.91
2022-11-01T07:34:42.409Z,98417.41
2022-11-01T07:36:45.413Z,98414.44
2022-11-01T07:38:48.388Z,98423.63
2022-11-01T07:40:53.294Z,98423.97
2022-11-01T07:42:58.154Z,98423.47
2022-11-01T07:45:02.653Z,98424.66
2022-11-01T07:47:05.996Z,98410.56
2022-11-01T07:49:09.333Z,98412.00
2022-11-01T07:51:12.873Z,98413.41
2022-11-01T07:53:18.040Z,98404.34
2022-11-01T07:55:21.035Z,98412.53
2022-11-01T07:57:24.370Z,98425.19
2022-11-01T07:59:27.380Z,98434.63
2022-11-01T08:01:31.970Z,98429.94
2022-11-01T08:03:35.025Z,98421.81
2022-11-01T08:05:38.193Z,98422.44
2022-11-01T08:07:41.603Z,98426.22
2022-11-01T08:09:44.688Z,98421.91
2022-11-01T08:11:47.710Z,98429.03
2022-11-01T08:13:50.780Z,98418.13
2022-11-01T08:15:54.538Z,98418.34
2022-11-01T08:17:59.586Z,98427.09
2022-11-01T08:20:02.823Z,98424.69
2022-11-01T08:22:05.891Z,98438.72
2022-11-01T08:24:09.475Z,98447.41
2022-11-01T08:26:12.588Z,98451.88
2022-11-01T08:28:17.149Z,98463.53
2022-11-01T08:30:21.300Z,98464.72
2022-11-01T08:32:24.376Z,98471.28
2022-11-01T08:34:30.679Z,98473.41
2022-11-01T08:36:34.238Z,98469.41
2022-11-01T08:38:37.507Z,98474.97
2022-11-01T08:40:41.750Z,98470.84
2022-11-01T08:42:45.355Z,98475.72
2022-11-01T08:44:48.679Z,98481.28
2022-11-01T08:46:54.893Z,98478.97
2022-11-01T08:49:00.388Z,98478.47
2022-11-01T08:51:05.145Z,98475.38
2022-11-01T08:53:09.287Z,98480.41
2022-11-01T08:55:12.539Z,98482.75
2022-11-01T08:57:16.033Z,98477.94
2022-11-01T08:59:19.127Z,98481.81
2022-11-01T09:01:23.908Z,98476.03
2022-11-01T09:03:27.995Z,98484.38
2022-11-01T09:05:31.789Z,98492.56
2022-11-01T09:07:36.824Z,98493.81
2022-11-01T09:09:40.083Z,98485.63
2022-11-01T09:11:43.146Z,98487.34
2022-11-01T09:13:46.223Z,98488.28
2022-11-01T09:15:49.300Z,98481.34
2022-11-01T09:17:52.955Z,98482.06
2022-11-01T09:19:56.683Z,98486.13
2022-11-01T09:21:59.709Z,98485.84
2022-11-01T09:24:07.488Z,98486.53
2022-11-01T09:26:11.865Z,98486.41
2022-11-01T09:28:15.075Z,98488.75
2022-11-01T09:30:18.567Z,98488.50
2022-11-01T09:32:21.659Z,98496.13
2022-11-01T09:34:29.544Z,98498.38
2022-11-01T09:36:32.851Z,98509.19
2022-11-01T09:38:37.020Z,98513.22
2022-11-01T09:40:45.404Z,98508.50
2022-11-01T09:42:48.902Z,98511.41
2022-11-01T09:44:55.557Z,98506.31
2022-11-01T09:47:02.596Z,98508.13
2022-11-01T09:49:09.858Z,98511.72
2022-11-01T09:51:17.636Z,98516.44
2022-11-01T09:53:23.131Z,98507.28
2022-11-01T09:55:35.782Z,98517.00
2022-11-01T09:57:46.194Z,98518.25
2022-11-01T09:59:57.552Z,98518.13
2022-11-01T10:02:11.390Z,98516.13
2022-11-01T10:04:42.005Z,98525.13
2022-11-01T10:06:47.851Z,98527.13
2022-11-01T10:08:59.323Z,98526.03
2022-11-01T10:11:12.969Z,98529.19
2022-11-01T10:13:30.413Z,98530.44
2022-11-01T10:15:42.994Z,98522.06
2022-11-01T10:18:02.381Z,98526.78
2022-11-01T10:22:17.847Z,98520.59
2022-11-01T10:24:24.816Z,98529.22
2022-11-01T10:26:31.737Z,98527.84
2022-11-01T10:28:43.580Z,98525.66
2022-11-01T10:30:50.130Z,98528.72
2022-11-01T10:32:55.163Z,98525.56
2022-11-01T10:35:01.893Z,98524.84
2022-11-01T10:37:15.816Z,98519.00
2022-11-01T10:41:53.706Z,98520.94
2022-11-01T10:44:02.461Z,98515.06
2022-11-01T10:46:08.698Z,98513.25
2022-11-01T10:48:17.935Z,98513.41
2022-11-01T10:50:22.395Z,98510.31
2022-11-01T10:52:28.626Z,98513.34
2022-11-01T10:54:33.183Z,98514.03
2022-11-01T10:56:41.650Z,98514.03
2022-11-01T10:58:48.787Z,98498.84
2022-11-01T11:00:54.548Z,98500.38
2022-11-01T11:02:59.622Z,98508.53
2022-11-01T11:05:02.702Z,98512.44
2022-11-01T11:07:13.580Z,98502.75
2022-11-01T11:09:23.407Z,98507.44
2022-11-01T11:11:38.079Z,98504.94
2022-11-01T11:13:42.248Z,98505.09
2022-11-01T11:15:48.387Z,98507.34
2022-11-01T11:17:56.655Z,98502.97
2022-11-01T11:20:04.469Z,98504.00
2022-11-01T11:22:08.998Z,98510.03
2022-11-01T11:24:19.664Z,98515.06
2022-11-01T11:26:22.911Z,98510.06
2022-11-01T11:28:30.919Z,98511.03
2022-11-01T11:30:36.133Z,98509.53
2022-11-01T11:32:43.064Z,98507.06
2022-11-01T11:34:56.114Z,98511.47
2022-11-01T11:37:00.636Z,98514.97
2022-11-01T11:39:06.746Z,98507.72
2022-11-01T11:41:14.273Z,98501.63
2022-11-01T11:43:26.191Z,98509.69
2022-11-01T11:45:31.039Z,98505.91
2022-11-01T11:47:39.252Z,98494.50
2022-11-01T11:49:43.096Z,98498.69
2022-11-01T11:51:47.962Z,98495.03
2022-11-01T11:54:21.774Z,98501.06
2022-11-01T11:56:25.076Z,98497.44
2022-11-01T11:58:30.490Z,98497.44
2022-11-01T12:00:34.749Z,98493.97
2022-11-01T12:02:41.877Z,98490.47
2022-11-01T12:04:49.676Z,98491.31
2022-11-01T12:06:54.084Z,98500.91
2022-11-01T12:08:58.760Z,98498.25
2022-11-01T12:11:01.932Z,98503.94
2022-11-01T12:13:23.885Z,98495.19
2022-11-01T12:15:28.163Z,98494.38
2022-11-01T12:17:34.399Z,98497.47
2022-11-01T12:19:38.141Z,98500.25
2022-11-01T12:21:44.175Z,98490.78
2022-11-01T12:23:49.483Z,98488.59
2022-11-01T12:25:53.184Z,98491.66
2022-11-01T12:27:59.924Z,98489.59
2022-11-01T12:30:08.435Z,98484.59
2022-11-01T12:32:16.326Z,98493.81
2022-11-01T12:34:23.102Z,98495.88
2022-11-01T12:36:33.319Z,98493.69
2022-11-01T12:38:43.127Z,98487.84
2022-11-01T12:40:51.249Z,98504.00
2022-11-01T12:42:58.167Z,98495.41
2022-11-01T12:45:09.600Z,98501.34
2022-11-01T12:47:17.893Z,98504.44
2022-11-01T12:49:31.931Z,98504.44
2022-11-01T12:51:38.635Z,98509.28
2022-11-01T12:53:58.832Z,98507.75
2022-11-01T12:56:08.839Z,98494.28
2022-11-01T12:58:16.794Z,98504.47
2022-11-01T13:00:24.948Z,98505.16
2022-11-01T13:02:40.326Z,98497.63
2022-11-01T13:04:49.887Z,98506.81
2022-11-01T13:07:12.680Z,98506.41
2022-11-01T13:09:21.604Z,98497.31
2022-11-01T13:11:33.204Z,98503.19
2022-11-01T13:13:41.878Z,98504.72
2022-11-01T13:15:57.078Z,98506.38
2022-11-01T13:18:08.966Z,98503.88
2022-11-01T13:20:26.088Z,98499.47
2022-11-01T13:22:34.727Z,98499.59
2022-11-01T13:24:46.385Z,98498.59
2022-11-01T13:26:54.770Z,98496.44
2022-11-01T13:29:04.585Z,98499.78
2022-11-01T13:31:12.490Z,98494.22
2022-11-01T13:33:22.305Z,98493.22
2022-11-01T13:35:40.219Z,98500.75
2022-11-01T13:37:49.023Z,98484.31
2022-11-01T13:40:18.705Z,98493.22
2022-11-01T13:42:25.849Z,98492.22
2022-11-01T13:44:32.354Z,98499.06
2022-11-01T13:47:08.282Z,98496.97
2022-11-01T13:49:33.474Z,98487.22
2022-11-01T13:51:40.354Z,98484.59
2022-11-01T13:53:46.845Z,98493.22
2022-11-01T13:55:55.097Z,98484.16
2022-11-01T13:57:59.966Z,98486.41
2022-11-01T14:00:06.891Z,98492.13
2022-11-01T14:02:55.223Z,98486.56
2022-11-01T14:04:59.018Z,98495.47
2022-11-01T14:07:16.224Z,98495.47
2022-11-01T14:09:33.651Z,98495.59
2022-11-01T14:11:47.374Z,98499.91
2022-11-01T14:13:52.007Z,98496.16
2022-11-01T14:16:20.827Z,98490.88
2022-11-01T14:18:24.604Z,98486.16
2022-11-01T14:20:54.175Z,98486.97
2022-11-01T14:22:57.658Z,98489.75
2022-11-01T14:25:01.830Z,98485.44
2022-11-01T14:27:35.620Z,98493.34
2022-11-01T14:29:43.949Z,98498.63
2022-11-01T14:31:47.950Z,98491.72
2022-11-01T14:33:54.897Z,98494.50
2022-11-01T14:36:04.128Z,98497.13
2022-11-01T14:38:09.153Z,98499.06
2022-11-01T14:40:22.167Z,98500.88
2022-11-01T14:42:39.407Z,98500.03
2022-11-01T14:44:49.688Z,98500.88
2022-11-01T14:46:55.933Z,98500.03
2022-11-01T14:49:02.688Z,98495.59
2022-11-01T14:51:11.869Z,98500.72
2022-11-01T14:53:23.604Z,98504.66
2022-11-01T14:55:31.511Z,98509.47
2022-11-01T14:57:35.783Z,98501.97
2022-11-01T14:59:38.867Z,98516.03
2022-11-01T15:01:47.933Z,98510.63
2022-11-01T15:03:54.885Z,98514.22
2022-11-01T15:05:58.293Z,98513.25
2022-11-01T15:08:01.841Z,98523.09
2022-11-01T15:10:07.722Z,98520.47
2022-11-01T15:12:12.204Z,98527.69
2022-11-01T15:14:22.003Z,98530.75
2022-11-01T15:16:26.793Z,98535.47
2022-11-01T15:18:31.974Z,98536.16
2022-11-01T15:20:38.872Z,98535.56
2022-11-01T15:22:42.993Z,98532.25
2022-11-01T15:24:47.297Z,98530.03
2022-11-01T15:26:50.955Z,98526.56
2022-11-01T15:28:56.146Z,98530.84
2022-11-01T15:31:02.127Z,98531.69
2022-11-01T15:33:16.897Z,98532.94
2022-11-01T15:35:23.992Z,98522.78
2022-11-01T15:37:32.569Z,98522.91
2022-11-01T15:39:37.824Z,98526.69
2022-11-01T15:41:40.866Z,98527.78
2022-11-01T15:43:52.153Z,98533.47
2022-11-01T15:45:57.957Z,98530.13
2022-11-01T15:48:03.931Z,98528.72
2022-11-01T15:50:07.936Z,98523.84
2022-11-01T15:52:18.630Z,98533.22
2022-11-01T15:54:32.186Z,98529.34
2022-11-01T15:56:43.625Z,98526.28
2022-11-01T15:58:49.151Z,98526.56
2022-11-01T16:00:59.798Z,98525.00
2022-11-01T16:03:06.392Z,98527.91
2022-11-01T16:05:10.498Z,98538.72
2022-11-01T16:07:18.541Z,98536.22
2022-11-01T16:09:34.752Z,98544.25
2022-11-01T16:11:38.601Z,98538.44
2022-11-01T16:13:42.141Z,98538.69
2022-11-01T16:15:59.931Z,98542.53
2022-11-01T16:18:15.847Z,98540.03
2022-11-01T16:20:31.869Z,98542.13
2022-11-01T16:22:38.855Z,98542.38
2022-11-01T16:24:42.441Z,98553.03
2022-11-01T16:26:55.602Z,98548.56
2022-11-01T16:28:58.771Z,98546.56
2022-11-01T16:31:01.975Z,98558.31
2022-11-01T16:33:23.872Z,98569.38
2022-11-01T16:35:32.544Z,98569.75
2022-11-01T16:37:44.664Z,98575.41
2022-11-01T16:39:48.125Z,98574.72
2022-11-01T16:41:52.668Z,98574.16
2022-11-01T16:43:56.896Z,98573.56
2022-11-01T16:46:04.782Z,98579.09
2022-11-01T16:48:18.564Z,98569.66
2022-11-01T16:50:24.959Z,98583.16
2022-11-01T16:52:28.119Z,98576.59
2022-11-01T16:54:33.304Z,98582.22
2022-11-01T16:56:39.156Z,98587.31
2022-11-01T16:58:42.684Z,98594.03
2022-11-01T17:00:54.544Z,98592.03
2022-11-01T17:02:59.496Z,98592.53
2022-11-01T17:05:06.666Z,98585.97
2022-11-01T17:07:13.016Z,98602.00
2022-11-01T17:09:18.170Z,98604.03
2022-11-01T17:11:22.729Z,98603.31
2022-11-01T17:13:25.914Z,98606.69
2022-11-01T17:15:29.478Z,98607.44
2022-11-01T17:17:32.597Z,98610.56
2022-11-01T17:19:37.480Z,98613.19
2022-11-01T17:21:40.770Z,98617.59
2022-11-01T17:23:44.083Z,98608.16
2022-11-01T17:25:51.131Z,98610.06
2022-11-01T17:27:58.143Z,98613.78
2022-11-01T17:30:01.389Z,98620.00
2022-11-01T17:32:08.957Z,98615.91
2022-11-01T17:34:12.162Z,98617.97
2022-11-01T17:36:18.827Z,98627.38
2022-11-01T17:38:30.058Z,98622.00
2022-11-01T17:40:33.835Z,98625.47
2022-11-01T17:42:36.971Z,98618.75
2022-11-01T17:44:41.418Z,98617.22
2022-11-01T17:46:44.751Z,98621.75
2022-11-01T17:48:48.232Z,98615.66
2022-11-01T17:50:52.402Z,98623.41
2022-11-01T17:52:55.836Z,98618.16
2022-11-01T17:54:58.955Z,98614.25
2022-11-01T17:57:02.170Z,98617.22
2022-11-01T17:59:05.462Z,98617.78
2022-11-01T18:01:10.720Z,98618.03
2022-11-01T18:03:16.663Z,98619.09
2022-11-01T18:05:19.775Z,98619.19
2022-11-01T18:07:23.083Z,98626.25
2022-11-01T18:09:27.083Z,98623.84
2022-11-01T18:11:40.083Z,98626.31
2022-11-01T18:13:50.270Z,98619.03
2022-11-01T18:15:57.511Z,98626.28
2022-11-01T18:18:15.076Z,98631.78
2022-11-01T18:20:24.537Z,98629.47
2022-11-01T18:22:35.959Z,98631.41
2022-11-01T18:24:44.235Z,98636.03
2022-11-01T18:26:47.839Z,98629.94
2022-11-01T18:28:51.742Z,98623.97
2022-11-01T18:30:57.153Z,98626.22
2022-11-01T18:33:10.974Z,98625.59
2022-11-01T18:35:24.009Z,98626.69
2022-11-01T18:37:35.229Z,98628.34
2022-11-01T18:39:46.899Z,98633.56
2022-11-01T18:41:51.253Z,98632.13
2022-11-01T18:43:55.474Z,98643.53
2022-11-01T18:48:28.363Z,98641.53
2022-11-01T18:50:32.309Z,98628.16
2022-11-01T18:52:36.020Z,98639.19
2022-11-01T18:54:53.564Z,98642.38
2022-11-01T18:57:08.715Z,98637.34
2022-11-01T18:59:14.593Z,98639.47
2022-11-01T19:01:19.919Z,98634.34
2022-11-01T19:03:24.287Z,98638.94
2022-11-01T19:05:28.815Z,98648.09
2022-11-01T19:07:57.055Z,98641.47
2022-11-01T19:09:58.520Z,98637.50
2022-11-01T19:12:03.492Z,98644.63
2022-11-01T19:14:07.275Z,98636.78
2022-11-01T19:16:13.676Z,98640.34
2022-11-01T19:18:19.626Z,98650.09
2022-11-01T19:20:25.186Z,98648.53
2022-11-01T19:22:40.678Z,98646.84
2022-11-01T19:24:44.231Z,98637.75
2022-11-01T19:26:47.461Z,98634.81
2022-11-01T19:28:52.664Z,98644.91
2022-11-01T19:30:57.726Z,98640.19
2022-11-01T19:33:04.407Z,98633.91
2022-11-01T19:35:16.871Z,98626.75
2022-11-01T19:37:29.177Z,98631.34
2022-11-01T19:39:40.682Z,98633.03
2022-11-01T19:41:44.900Z,98633.03
2022-11-01T19:43:48.309Z,98634.69
2022-11-01T19:45:52.907Z,98634.69
2022-11-01T19:47:57.240Z,98636.38
2022-11-01T19:50:00.519Z,98630.63
2022-11-01T19:52:23.175Z,98629.16
2022-11-01T19:54:26.232Z,98630.09
2022-11-01T19:56:30.805Z,98626.53
2022-11-01T19:58:42.131Z,98629.16
2022-11-01T20:00:45.742Z,98637.00
2022-11-01T20:02:50.756Z,98629.25
2022-11-01T20:04:57.580Z,98631.97
2022-11-01T20:07:03.127Z,98637.31
2022-11-01T20:09:10.044Z,98633.13
2022-11-01T20:11:14.732Z,98642.88
2022-11-01T20:13:19.200Z,98641.28
2022-11-01T20:15:22.568Z,98642.34
2022-11-01T20:17:26.396Z,98647.06
2022-11-01T20:19:31.200Z,98640.34
2022-11-01T20:21:34.680Z,98645.78
2022-11-01T20:23:38.960Z,98647.56
2022-11-01T20:25:42.435Z,98650.28
2022-11-01T20:27:45.478Z,98652.03
2022-11-01T20:29:49.996Z,98652.13
2022-11-01T20:31:53.831Z,98654.03
2022-11-01T20:33:57.703Z,98655.06
2022-11-01T20:36:00.986Z,98650.13
2022-11-01T20:38:04.197Z,98654.00
2022-11-01T20:40:09.150Z,98671.66
2022-11-01T20:42:15.162Z,98671.03
2022-11-01T20:44:18.663Z,98667.06
2022-11-01T20:46:24.066Z,98665.56
2022-11-01T20:48:27.346Z,98671.81
2022-11-01T20:50:33.792Z,98675.38
2022-11-01T20:52:40.421Z,98669.97
2022-11-01T20:54:46.721Z,98676.13
2022-11-01T20:56:50.807Z,98674.34
2022-11-01T20:58:56.403Z,98675.09
2022-11-01T21:00:59.539Z,98677.03
2022-11-01T21:03:08.948Z,98673.91
2022-11-01T21:05:21.510Z,98676.06
2022-11-01T21:07:26.580Z,98678.31
2022-11-01T21:09:33.432Z,98674.44
2022-11-01T21:11:44.659Z,98684.31
2022-11-01T21:13:48.228Z,98680.25
2022-11-01T21:15:53.796Z,98676.22
2022-11-01T21:17:59.210Z,98677.28
2022-11-01T21:20:03.848Z,98681.47
2022-11-01T21:22:14.425Z,98678.03
2022-11-01T21:24:33.674Z,98677.47
2022-11-01T21:26:40.005Z,98679.31
2022-11-01T21:28:46.645Z,98676.81
2022-11-01T21:30:50.099Z,98679.53
2022-11-01T21:32:53.434Z,98675.25
2022-11-01T21:34:57.452Z,98678.03
2022-11-01T21:37:02.246Z,98676.63
2022-11-01T21:39:13.721Z,98680.25
2022-11-01T21:41:27.070Z,98684.72
2022-11-01T21:43:32.215Z,98678.78
2022-11-01T21:45:35.516Z,98684.19
2022-11-01T21:47:44.631Z,98678.00
2022-11-01T21:49:49.363Z,98680.63
2022-11-01T21:51:53.248Z,98689.50
2022-11-01T21:54:01.628Z,98688.78
2022-11-01T21:56:08.142Z,98684.47
2022-11-01T21:58:11.132Z,98687.00
2022-11-01T22:00:15.749Z,98686.34
2022-11-01T22:02:19.241Z,98680.06
2022-11-01T22:04:23.413Z,98681.97
2022-11-01T22:06:28.032Z,98678.59
2022-11-01T22:08:31.086Z,98683.06
2022-11-01T22:10:35.774Z,98679.72
2022-11-01T22:12:38.865Z,98678.31
2022-11-01T22:14:42.077Z,98687.28
2022-11-01T22:16:45.302Z,98690.72
2022-11-01T22:18:48.440Z,98682.06
2022-11-01T22:20:51.476Z,98691.63
2022-11-01T22:22:55.017Z,98694.06
2022-11-01T22:24:58.241Z,98694.06
2022-11-01T22:27:03.208Z,98694.06
2022-11-01T22:29:06.977Z,98696.59
2022-11-01T22:31:10.039Z,98694.94
2022-11-01T22:33:13.422Z,98695.13
2022-11-01T22:35:16.457Z,98686.50
2022-11-01T22:37:19.496Z,98691.28
2022-11-01T22:39:25.062Z,98691.75
2022-11-01T22:41:33.025Z,98694.06
2022-11-01T22:43:40.018Z,98689.22
2022-11-01T22:46:03.147Z,98694.88
2022-11-01T22:48:19.120Z,98692.72
2022-11-01T22:50:31.652Z,98697.94
2022-11-01T22:52:48.573Z,98700.56
2022-11-01T22:55:19.046Z,98697.94
2022-11-01T22:57:34.613Z,98697.75
2022-11-01T22:59:46.905Z,98695.81
2022-11-01T23:01:51.274Z,98712.31
2022-11-01T23:03:55.060Z,98709.72
2022-11-01T23:06:00.801Z,98716.03
2022-11-01T23:08:14.455Z,98708.94
2022-11-01T23:10:29.239Z,98714.25
2022-11-01T23:12:50.541Z,98720.31
2022-11-01T23:14:55.404Z,98716.13
2022-11-01T23:16:58.340Z,98716.13
2022-11-01T23:19:03.507Z,98706.88
2022-11-01T23:21:10.702Z,98715.63
2022-11-01T23:23:17.153Z,98720.00
2022-11-01T23:25:20.163Z,98730.44
2022-11-01T23:27:26.285Z,98724.38
2022-11-01T23:29:29.583Z,98727.00
2022-11-01T23:31:34.082Z,98722.78
2022-11-01T23:33:40.733Z,98731.56
2022-11-01T23:35:45.725Z,98728.09
2022-11-01T23:37:49.365Z,98735.91
2022-11-01T23:39:52.325Z,98740.28
2022-11-01T23:41:55.296Z,98744.03
2022-11-01T23:43:59.430Z,98738.22
2022-11-01T23:46:02.613Z,98733.09
2022-11-01T23:48:09.918Z,98731.44
2022-11-01T23:50:17.366Z,98744.56
2022-11-01T23:52:38.858Z,98729.75
2022-11-01T23:54:44.022Z,98741.84
2022-11-01T23:56:47.346Z,98743.78
2022-11-01T23:58:57.378Z,98731.34
